createdAt,value
2018-06-21T00:00:19.263Z,5.17
2018-06-21T00:02:50.253Z,5.40
2018-06-21T00:05:20.900Z,5.10
2018-06-21T00:07:51.409Z,5.53
2018-06-21T00:10:21.653Z,5.07
2018-06-21T00:12:52.966Z,5.60
2018-06-21T00:15:23.648Z,5.50
2018-06-21T00:17:54.468Z,5.03
2018-06-21T00:20:25.110Z,5.30
2018-06-21T00:22:56.008Z,5.53
2018-06-21T00:25:26.117Z,5.40
2018-06-21T00:27:57.339Z,5.53
2018-06-21T00:30:27.947Z,5.60
2018-06-21T00:32:58.729Z,5.87
2018-06-21T00:35:29.465Z,5.50
2018-06-21T00:38:00.250Z,5.10
2018-06-21T00:40:30.881Z,5.57
2018-06-21T00:43:01.694Z,5.10
2018-06-21T00:45:32.405Z,5.60
2018-06-21T00:48:03.486Z,5.80
2018-06-21T00:50:34.206Z,5.27
2018-06-21T00:53:05.175Z,5.50
2018-06-21T00:55:52.037Z,5.70
2018-06-21T00:58:22.753Z,6.43
2018-06-21T01:00:53.441Z,6.27
2018-06-21T01:03:24.234Z,5.83
2018-06-21T01:05:54.911Z,5.87
2018-06-21T01:08:25.641Z,5.97
2018-06-21T01:10:56.289Z,6.57
2018-06-21T01:13:27.326Z,7.50
2018-06-21T01:15:57.998Z,6.90
2018-06-21T01:18:28.244Z,7.20
2018-06-21T01:20:58.882Z,7.47
2018-06-21T01:23:29.690Z,6.97
2018-06-21T01:26:00.464Z,6.60
2018-06-21T01:28:31.265Z,7.70
2018-06-21T01:31:01.613Z,8.23
2018-06-21T01:33:32.529Z,8.03
2018-06-21T01:36:03.098Z,7.70
2018-06-21T01:38:33.946Z,11.43
2018-06-21T01:41:04.672Z,12.70
2018-06-21T01:43:35.533Z,9.40
2018-06-21T01:46:06.427Z,8.50
2018-06-21T01:48:37.247Z,7.90
2018-06-21T01:51:07.910Z,8.57
2018-06-21T01:53:38.689Z,9.50
2018-06-21T01:56:08.892Z,9.83
2018-06-21T01:58:39.773Z,10.43
2018-06-21T02:01:10.439Z,9.90
2018-06-21T02:03:41.053Z,10.20
2018-06-21T02:06:11.793Z,13.23
2018-06-21T02:08:42.646Z,18.13
2018-06-21T02:11:13.371Z,15.30
2018-06-21T02:13:44.360Z,13.53
2018-06-21T02:16:14.487Z,11.67
2018-06-21T02:18:45.166Z,10.37
2018-06-21T02:21:15.961Z,10.33
2018-06-21T02:23:46.783Z,9.27
2018-06-21T02:26:17.021Z,7.73
2018-06-21T02:28:47.953Z,7.73
2018-06-21T02:31:18.671Z,8.17
2018-06-21T02:33:48.912Z,7.13
2018-06-21T02:36:19.679Z,6.80
2018-06-21T02:38:50.502Z,6.97
2018-06-21T02:41:21.257Z,7.23
2018-06-21T02:43:52.129Z,7.37
2018-06-21T02:46:22.822Z,6.90
2018-06-21T02:48:53.601Z,6.40
2018-06-21T02:51:23.698Z,7.60
2018-06-21T02:53:54.579Z,7.20
2018-06-21T02:56:25.373Z,6.97
2018-06-21T02:58:56.135Z,6.73
2018-06-21T03:01:26.698Z,7.10
2018-06-21T03:03:57.347Z,7.03
2018-06-21T03:06:27.958Z,7.20
2018-06-21T03:08:58.662Z,6.77
2018-06-21T03:11:29.338Z,6.73
2018-06-21T03:14:00.157Z,8.30
2018-06-21T03:16:30.604Z,8.90
2018-06-21T03:19:01.277Z,12.10
2018-06-21T03:21:31.597Z,11.27
2018-06-21T03:24:02.649Z,9.70
2018-06-21T03:26:33.351Z,9.13
2018-06-21T03:29:04.237Z,9.10
2018-06-21T03:31:35.219Z,7.77
2018-06-21T03:34:06.168Z,8.03
2018-06-21T03:36:36.849Z,7.47
2018-06-21T03:39:08.852Z,9.30
2018-06-21T03:41:39.053Z,8.60
2018-06-21T03:44:10.075Z,7.80
2018-06-21T03:46:40.690Z,8.60
2018-06-21T03:49:11.678Z,8.57
2018-06-21T03:51:42.422Z,7.57
2018-06-21T03:54:13.165Z,8.13
2018-06-21T03:56:43.882Z,7.50
2018-06-21T03:59:14.758Z,7.33
2018-06-21T04:01:45.413Z,7.77
2018-06-21T04:04:16.166Z,7.43
2018-06-21T04:06:46.922Z,9.40
2018-06-21T04:09:17.332Z,7.80
2018-06-21T04:11:47.977Z,8.17
2018-06-21T04:14:18.729Z,13.93
2018-06-21T04:16:49.399Z,17.20
2018-06-21T04:19:20.444Z,8.53
2018-06-21T04:21:51.122Z,6.70
2018-06-21T04:24:21.984Z,6.30
2018-06-21T04:26:52.858Z,6.93
2018-06-21T04:29:23.654Z,6.47
2018-06-21T04:31:54.368Z,7.70
2018-06-21T04:34:25.399Z,8.50
2018-06-21T04:36:55.613Z,7.57
2018-06-21T04:39:25.769Z,6.90
2018-06-21T04:41:56.430Z,6.97
2018-06-21T04:44:27.245Z,6.40
2018-06-21T04:46:58.160Z,6.50
2018-06-21T04:49:28.915Z,6.87
2018-06-21T04:51:59.561Z,5.63
2018-06-21T04:54:30.041Z,6.00
2018-06-21T04:57:00.774Z,5.87
2018-06-21T04:59:31.518Z,6.33
2018-06-21T05:02:02.300Z,6.20
2018-06-21T05:04:32.997Z,6.17
2018-06-21T05:07:03.713Z,6.40
2018-06-21T05:09:34.449Z,5.40
2018-06-21T05:12:05.179Z,5.23
2018-06-21T05:14:35.986Z,5.23
2018-06-21T05:17:06.746Z,4.87
2018-06-21T05:19:37.618Z,5.30
2018-06-21T05:22:08.177Z,5.53
2018-06-21T05:24:38.890Z,5.63
2018-06-21T05:27:09.959Z,10.93
2018-06-21T05:29:40.614Z,5.90
2018-06-21T05:32:10.792Z,7.13
2018-06-21T05:34:41.857Z,7.03
2018-06-21T05:37:12.364Z,6.63
2018-06-21T05:39:43.181Z,6.80
2018-06-21T05:42:13.819Z,5.80
2018-06-21T05:44:44.812Z,4.90
2018-06-21T05:47:15.019Z,5.83
2018-06-21T05:49:45.129Z,5.50
2018-06-21T05:52:15.613Z,4.40
2018-06-21T05:54:46.245Z,4.53
2018-06-21T05:57:17.101Z,5.33
2018-06-21T05:59:47.728Z,4.97
2018-06-21T06:02:18.556Z,4.90
2018-06-21T06:04:49.121Z,5.63
2018-06-21T06:07:19.713Z,5.47
2018-06-21T06:09:50.410Z,5.57
2018-06-21T06:12:21.294Z,4.97
2018-06-21T06:14:51.926Z,4.57
2018-06-21T06:17:22.642Z,4.60
2018-06-21T06:19:53.214Z,10.60
2018-06-21T06:22:24.093Z,4.73
2018-06-21T06:24:54.789Z,5.77
2018-06-21T06:27:25.445Z,4.20
2018-06-21T06:29:55.957Z,4.73
2018-06-21T06:32:26.844Z,4.30
2018-06-21T06:34:57.326Z,3.90
2018-06-21T06:37:28.125Z,4.57
2018-06-21T06:39:58.874Z,4.17
2018-06-21T06:42:29.554Z,3.80
2018-06-21T06:45:00.192Z,4.87
2018-06-21T06:47:31.058Z,4.50
2018-06-21T06:50:01.245Z,4.30
2018-06-21T06:52:31.913Z,4.23
2018-06-21T06:55:02.165Z,4.37
2018-06-21T06:57:33.289Z,3.80
2018-06-21T07:00:04.054Z,5.27
2018-06-21T07:02:34.761Z,3.70
2018-06-21T07:05:06.313Z,3.80
2018-06-21T07:07:37.014Z,3.00
2018-06-21T07:10:07.130Z,3.35
2018-06-21T07:12:37.545Z,4.37
2018-06-21T07:15:09.221Z,5.25
2018-06-21T07:17:40.328Z,3.77
2018-06-21T07:20:10.995Z,3.42
2018-06-21T07:22:41.845Z,4.22
2018-06-21T07:25:12.617Z,3.50
2018-06-21T07:27:43.366Z,3.37
2018-06-21T07:30:13.994Z,3.90
2018-06-21T07:32:45.091Z,3.40
2018-06-21T07:35:15.757Z,3.58
2018-06-21T07:37:46.506Z,3.65
2018-06-21T07:40:17.239Z,3.00
2018-06-21T07:42:48.141Z,3.58
2018-06-21T07:45:18.762Z,3.58
2018-06-21T07:47:49.438Z,3.33
2018-06-21T07:50:20.170Z,3.05
2018-06-21T07:52:51.011Z,2.97
2018-06-21T07:55:21.870Z,2.90
2018-06-21T07:57:52.701Z,3.70
2018-06-21T08:00:23.357Z,3.20
2018-06-21T08:02:54.153Z,3.83
2018-06-21T08:05:24.929Z,3.07
2018-06-21T08:07:55.928Z,3.72
2018-06-21T08:10:26.589Z,3.02
2018-06-21T08:12:57.226Z,2.75
2018-06-21T08:15:27.867Z,3.87
2018-06-21T08:17:58.957Z,2.80
2018-06-21T08:20:29.785Z,3.60
2018-06-21T08:23:00.658Z,3.58
2018-06-21T08:25:31.354Z,2.75
2018-06-21T08:28:02.237Z,6.05
2018-06-21T08:30:32.901Z,2.80
2018-06-21T08:33:03.343Z,3.00
2018-06-21T08:35:34.032Z,3.25
2018-06-21T08:38:04.321Z,3.20
2018-06-21T08:40:34.834Z,9.30
2018-06-21T08:43:05.553Z,2.95
2018-06-21T08:45:35.565Z,2.90
2018-06-21T08:48:07.637Z,3.15
2018-06-21T08:50:38.438Z,3.25
2018-06-21T08:53:09.329Z,3.17
2018-06-21T08:55:40.096Z,3.05
2018-06-21T08:58:10.758Z,3.00
2018-06-21T09:00:42.277Z,2.62
2018-06-21T09:03:13.101Z,2.90
2018-06-21T09:05:43.760Z,3.15
2018-06-21T09:08:14.529Z,2.70
2018-06-21T09:10:45.273Z,3.05
2018-06-21T09:13:16.017Z,2.58
2018-06-21T09:15:46.766Z,3.10
2018-06-21T09:18:17.477Z,2.83
2018-06-21T09:20:48.166Z,2.42
2018-06-21T09:23:18.998Z,3.42
2018-06-21T09:25:49.778Z,3.10
2018-06-21T09:28:20.650Z,3.22
2018-06-21T09:30:51.506Z,2.72
2018-06-21T09:33:22.409Z,2.80
2018-06-21T09:35:52.958Z,5.70
2018-06-21T09:38:28.281Z,2.72
2018-06-21T09:41:03.977Z,3.02
2018-06-21T09:43:50.296Z,2.85
2018-06-21T09:46:15.335Z,3.33
2018-06-21T09:48:51.568Z,2.77
2018-06-21T09:51:22.742Z,2.67
2018-06-21T09:53:53.446Z,2.60
2018-06-21T09:56:24.453Z,2.70
2018-06-21T09:58:55.086Z,2.70
2018-06-21T10:01:25.934Z,2.37
2018-06-21T10:03:56.662Z,3.05
2018-06-21T10:06:27.335Z,2.35
2018-06-21T10:08:58.237Z,2.50
2018-06-21T10:11:28.895Z,2.47
2018-06-21T10:13:59.678Z,2.72
2018-06-21T10:16:30.320Z,2.52
2018-06-21T10:19:01.222Z,2.45
2018-06-21T10:21:31.898Z,2.08
2018-06-21T10:24:02.654Z,13.25
2018-06-21T10:26:33.362Z,2.72
2018-06-21T10:29:04.214Z,2.33
2018-06-21T10:31:34.937Z,2.00
2018-06-21T10:34:05.795Z,1.90
2018-06-21T10:36:36.497Z,1.60
2018-06-21T10:39:11.314Z,8.63
2018-06-21T10:41:41.934Z,2.05
2018-06-21T10:44:12.773Z,3.30
2018-06-21T10:46:42.777Z,1.85
2018-06-21T10:49:12.880Z,1.65
2018-06-21T10:51:43.092Z,3.47
2018-06-21T10:54:13.550Z,1.72
2018-06-21T10:56:44.262Z,2.02
2018-06-21T10:59:14.981Z,1.87
2018-06-21T11:01:45.750Z,2.35
2018-06-21T11:04:16.502Z,1.98
2018-06-21T11:06:47.234Z,1.92
2018-06-21T11:09:17.926Z,1.60
2018-06-21T11:11:48.694Z,2.08
2018-06-21T11:14:19.385Z,1.67
2018-06-21T11:16:50.092Z,1.77
2018-06-21T11:19:20.819Z,1.72
2018-06-21T11:21:51.443Z,2.00
2018-06-21T11:24:22.169Z,1.72
2018-06-21T11:26:53.157Z,2.12
2018-06-21T11:29:23.876Z,1.90
2018-06-21T11:31:54.929Z,2.00
2018-06-21T11:34:25.574Z,1.80
2018-06-21T11:36:56.534Z,2.22
2018-06-21T11:39:26.985Z,1.87
2018-06-21T11:41:58.113Z,1.62
2018-06-21T11:44:28.861Z,1.65
2018-06-21T11:47:00.441Z,1.90
2018-06-21T11:49:31.322Z,1.40
2018-06-21T11:52:02.022Z,2.30
2018-06-21T11:54:32.261Z,1.98
2018-06-21T11:57:02.489Z,3.15
2018-06-21T11:59:33.354Z,2.20
2018-06-21T12:02:04.013Z,3.17
2018-06-21T12:04:34.853Z,1.77
2018-06-21T12:07:05.479Z,1.92
2018-06-21T12:09:36.470Z,1.75
2018-06-21T12:12:07.205Z,1.60
2018-06-21T12:14:38.168Z,1.52
2018-06-21T12:17:08.849Z,2.10
2018-06-21T12:19:39.601Z,1.77
2018-06-21T12:22:10.186Z,1.55
2018-06-21T12:24:40.999Z,1.50
2018-06-21T12:27:11.658Z,1.90
2018-06-21T12:29:42.996Z,2.40
2018-06-21T12:32:13.659Z,2.17
2018-06-21T12:34:43.746Z,2.42
2018-06-21T12:37:14.376Z,1.95
2018-06-21T12:39:45.054Z,1.70
2018-06-21T12:42:15.849Z,1.77
2018-06-21T12:44:46.770Z,1.60
2018-06-21T12:47:17.078Z,1.55
2018-06-21T12:49:47.573Z,1.72
2018-06-21T12:52:17.863Z,1.65
2018-06-21T12:54:48.243Z,1.80
2018-06-21T12:57:18.905Z,1.90
2018-06-21T12:59:49.795Z,1.85
2018-06-21T13:02:20.482Z,1.62
2018-06-21T13:04:51.698Z,1.87
2018-06-21T13:07:22.330Z,1.60
2018-06-21T13:10:09.478Z,1.80
2018-06-21T13:13:44.004Z,1.80
2018-06-21T13:16:15.246Z,1.92
2018-06-21T13:18:46.154Z,2.20
2018-06-21T13:21:17.054Z,1.92
2018-06-21T13:23:47.274Z,1.85
2018-06-21T13:26:17.625Z,2.45
2018-06-21T13:28:48.239Z,1.90
2018-06-21T13:31:18.902Z,1.80
2018-06-21T13:33:49.682Z,2.10
2018-06-21T13:36:20.273Z,1.82
2018-06-21T13:38:50.846Z,1.90
2018-06-21T13:41:21.650Z,2.10
2018-06-21T13:43:52.352Z,2.17
2018-06-21T13:46:23.173Z,10.43
2018-06-21T13:48:53.918Z,2.80
2018-06-21T13:51:24.437Z,2.22
2018-06-21T13:53:55.118Z,2.12
2018-06-21T13:56:25.922Z,2.10
2018-06-21T13:58:56.585Z,2.60
2018-06-21T14:01:27.273Z,3.80
2018-06-21T14:03:57.953Z,1.85
2018-06-21T14:06:28.695Z,2.35
2018-06-21T14:08:59.425Z,2.10
2018-06-21T14:11:30.522Z,1.98
2018-06-21T14:14:01.195Z,3.40
2018-06-21T14:16:32.227Z,3.50
2018-06-21T14:19:02.685Z,3.20
2018-06-21T14:21:33.713Z,2.20
2018-06-21T14:24:05.605Z,2.25
2018-06-21T14:26:36.775Z,2.30
2018-06-21T14:29:07.746Z,2.52
2018-06-21T14:31:38.441Z,2.80
2018-06-21T14:34:09.090Z,1.90
2018-06-21T14:36:39.709Z,2.27
2018-06-21T14:39:10.692Z,2.65
2018-06-21T14:41:40.850Z,2.33
2018-06-21T14:44:11.602Z,3.10
2018-06-21T14:46:42.121Z,2.37
2018-06-21T14:49:12.842Z,2.45
2018-06-21T14:51:43.582Z,2.42
2018-06-21T14:54:14.172Z,2.90
2018-06-21T14:56:44.871Z,2.50
2018-06-21T14:59:15.701Z,3.85
2018-06-21T15:01:46.362Z,2.00
2018-06-21T15:04:17.017Z,2.58
2018-06-21T15:06:47.805Z,3.15
2018-06-21T15:09:18.646Z,2.40
2018-06-21T15:11:49.583Z,2.62
2018-06-21T15:14:20.172Z,2.70
2018-06-21T15:16:50.980Z,2.42
2018-06-21T15:19:21.314Z,2.25
2018-06-21T15:21:52.077Z,2.58
2018-06-21T15:24:22.626Z,3.20
2018-06-21T15:26:53.418Z,2.50
2018-06-21T15:29:23.960Z,2.22
2018-06-21T15:31:54.608Z,2.50
2018-06-21T15:38:19.854Z,2.67
2018-06-21T15:40:50.577Z,2.35
2018-06-21T15:43:23.114Z,2.70
2018-06-21T15:45:53.817Z,2.62
2018-06-21T15:48:25.306Z,2.58
2018-06-21T15:50:55.993Z,2.45
2018-06-21T15:53:27.447Z,4.47
2018-06-21T15:55:58.049Z,2.58
2018-06-21T15:58:28.757Z,2.75
2018-06-21T16:00:59.446Z,3.10
2018-06-21T16:03:30.239Z,2.92
2018-06-21T16:06:01.490Z,3.65
2018-06-21T16:08:32.141Z,2.92
2018-06-21T16:11:02.583Z,3.47
2018-06-21T16:13:33.092Z,4.08
2018-06-21T16:16:03.799Z,2.72
2018-06-21T16:18:34.594Z,2.60
2018-06-21T16:21:05.257Z,2.72
2018-06-21T16:23:36.074Z,3.10
2018-06-21T16:26:06.578Z,3.00
2018-06-21T16:28:37.669Z,3.50
2018-06-21T16:31:08.349Z,2.58
2018-06-21T16:33:39.334Z,3.90
2018-06-21T16:36:10.014Z,3.98
2018-06-21T16:38:40.949Z,3.47
2018-06-21T16:41:11.641Z,2.52
2018-06-21T16:43:42.310Z,2.77
2018-06-21T16:46:13.113Z,2.80
2018-06-21T16:48:43.814Z,2.90
2018-06-21T16:51:14.474Z,2.80
2018-06-21T16:53:45.182Z,2.75
2018-06-21T16:56:15.938Z,3.00
2018-06-21T16:58:46.805Z,2.87
2018-06-21T17:01:17.507Z,3.58
2018-06-21T17:03:48.322Z,3.00
2018-06-21T17:06:19.022Z,3.17
2018-06-21T17:08:49.715Z,3.17
2018-06-21T17:11:21.714Z,3.00
2018-06-21T17:13:52.559Z,3.40
2018-06-21T17:16:23.187Z,2.67
2018-06-21T17:18:53.966Z,3.25
2018-06-21T17:21:24.598Z,3.50
2018-06-21T17:23:55.718Z,3.10
2018-06-21T17:26:26.349Z,3.10
2018-06-21T17:28:57.294Z,2.52
2018-06-21T17:31:27.990Z,2.87
2018-06-21T17:33:58.598Z,2.77
2018-06-21T17:36:29.268Z,2.90
2018-06-21T17:38:59.796Z,3.50
2018-06-21T17:41:30.522Z,3.30
2018-06-21T17:44:01.514Z,2.70
2018-06-21T17:46:32.153Z,3.70
2018-06-21T17:49:02.862Z,3.33
2018-06-21T17:51:33.593Z,3.07
2018-06-21T17:54:04.491Z,3.57
2018-06-21T17:56:35.334Z,3.10
2018-06-21T17:59:05.649Z,3.33
2018-06-21T18:01:36.181Z,3.23
2018-06-21T18:04:06.637Z,2.20
2018-06-21T18:06:37.406Z,2.83
2018-06-21T18:09:10.600Z,3.20
2018-06-21T18:11:41.201Z,3.03
2018-06-21T18:14:11.962Z,2.93
2018-06-21T18:16:42.878Z,2.73
2018-06-21T18:19:13.937Z,3.37
2018-06-21T18:21:44.550Z,3.47
2018-06-21T18:24:15.258Z,3.37
2018-06-21T18:26:45.954Z,3.07
2018-06-21T18:29:17.046Z,3.30
2018-06-21T18:31:47.679Z,3.83
2018-06-21T18:34:18.507Z,3.17
2018-06-21T18:36:49.127Z,3.70
2018-06-21T18:39:19.838Z,3.40
2018-06-21T18:41:49.845Z,3.97
2018-06-21T18:44:20.614Z,3.47
2018-06-21T18:46:51.394Z,3.70
2018-06-21T18:49:22.162Z,3.63
2018-06-21T18:51:53.002Z,3.60
2018-06-21T18:54:23.935Z,3.93
2018-06-21T18:56:54.134Z,4.60
2018-06-21T18:59:24.939Z,6.43
2018-06-21T19:01:55.409Z,3.60
2018-06-21T19:04:26.102Z,3.13
2018-06-21T19:07:01.827Z,3.77
2018-06-21T19:09:37.430Z,3.47
2018-06-21T19:12:09.131Z,4.00
2018-06-21T19:14:39.810Z,3.23
2018-06-21T19:17:10.450Z,3.47
2018-06-21T19:19:41.250Z,3.60
2018-06-21T19:22:11.901Z,3.90
2018-06-21T19:24:42.615Z,4.23
2018-06-21T19:27:13.271Z,8.23
2018-06-21T19:29:44.033Z,12.07
2018-06-21T19:32:14.161Z,10.07
2018-06-21T19:34:44.348Z,7.40
2018-06-21T19:37:14.884Z,6.30
2018-06-21T19:39:45.562Z,6.30
2018-06-21T19:42:16.153Z,5.20
2018-06-21T19:44:47.095Z,4.70
2018-06-21T19:47:17.198Z,3.70
2018-06-21T19:49:47.799Z,4.63
2018-06-21T19:52:18.446Z,4.90
2018-06-21T19:54:49.229Z,4.67
2018-06-21T19:57:19.529Z,5.37
2018-06-21T19:59:50.374Z,4.87
2018-06-21T20:02:21.162Z,4.57
2018-06-21T20:04:51.925Z,4.70
2018-06-21T20:07:22.701Z,4.50
2018-06-21T20:09:53.505Z,4.60
2018-06-21T20:12:24.263Z,6.20
2018-06-21T20:14:55.302Z,6.27
2018-06-21T20:17:25.902Z,5.07
2018-06-21T20:20:01.667Z,6.10
2018-06-21T20:22:31.857Z,5.27
2018-06-21T20:25:02.951Z,4.67
2018-06-21T20:27:33.545Z,5.53
2018-06-21T20:30:04.298Z,5.10
2018-06-21T20:32:34.302Z,4.57
2018-06-21T20:35:05.390Z,5.20
2018-06-21T20:37:36.043Z,5.30
2018-06-21T20:40:06.935Z,5.20
2018-06-21T20:42:37.615Z,5.10
2018-06-21T20:45:08.300Z,5.07
2018-06-21T20:47:38.965Z,5.07
2018-06-21T20:50:09.711Z,5.00
2018-06-21T20:52:40.343Z,5.10
2018-06-21T20:55:11.213Z,4.57
2018-06-21T20:57:41.313Z,4.10
2018-06-21T21:00:12.322Z,4.70
2018-06-21T21:02:42.968Z,4.70
2018-06-21T21:05:15.485Z,4.77
2018-06-21T21:07:46.575Z,4.57
2018-06-21T21:10:18.165Z,4.90
2018-06-21T21:12:48.873Z,4.53
2018-06-21T21:15:19.789Z,5.03
2018-06-21T21:17:50.449Z,4.83
2018-06-21T21:20:21.174Z,6.00
2018-06-21T21:22:51.803Z,4.80
2018-06-21T21:25:22.850Z,4.40
2018-06-21T21:27:53.476Z,4.33
2018-06-21T21:30:24.400Z,5.17
2018-06-21T21:32:55.049Z,5.20
2018-06-21T21:35:26.302Z,5.30
2018-06-21T21:37:56.721Z,4.43
2018-06-21T21:40:27.570Z,4.80
2018-06-21T21:42:58.333Z,4.93
2018-06-21T21:45:28.989Z,5.00
2018-06-21T21:47:59.641Z,5.07
2018-06-21T21:50:30.503Z,4.53
2018-06-21T21:53:01.219Z,5.23
2018-06-21T21:55:31.901Z,5.33
2018-06-21T21:58:02.097Z,4.40
2018-06-21T22:00:49.392Z,4.93
2018-06-21T22:03:19.889Z,4.80
2018-06-21T22:05:51.572Z,4.37
2018-06-21T22:08:22.305Z,4.57
2018-06-21T22:10:53.155Z,4.63
2018-06-21T22:13:23.881Z,5.03
2018-06-21T22:15:54.714Z,5.40
2018-06-21T22:18:25.547Z,5.37
2018-06-21T22:20:56.317Z,5.33
2018-06-21T22:23:26.838Z,4.77
2018-06-21T22:25:57.639Z,5.00
2018-06-21T22:28:28.314Z,5.17
2018-06-21T22:30:58.564Z,5.03
2018-06-21T22:33:28.733Z,4.77
2018-06-21T22:35:59.370Z,4.33
2018-06-21T22:38:29.913Z,4.93
2018-06-21T22:41:00.859Z,5.50
2018-06-21T22:43:31.479Z,5.33
2018-06-21T22:46:02.234Z,5.30
2018-06-21T22:48:32.906Z,5.33
2018-06-21T22:51:03.949Z,5.27
2018-06-21T22:53:34.601Z,5.30
2018-06-21T22:56:05.273Z,4.40
2018-06-21T22:58:35.998Z,4.83
2018-06-21T23:01:06.409Z,4.80
2018-06-21T23:03:37.112Z,5.10
2018-06-21T23:06:07.910Z,4.93
2018-06-21T23:08:38.618Z,5.83
2018-06-21T23:11:08.865Z,5.60
2018-06-21T23:13:39.558Z,5.47
2018-06-21T23:16:10.676Z,5.90
2018-06-21T23:18:58.036Z,5.90
2018-06-21T23:21:28.172Z,5.33
2018-06-21T23:23:58.411Z,5.60
2018-06-21T23:26:29.041Z,5.53
2018-06-21T23:28:59.629Z,5.43
2018-06-21T23:31:30.434Z,5.83
2018-06-21T23:34:00.995Z,5.20
2018-06-21T23:36:31.682Z,5.60
2018-06-21T23:39:02.270Z,5.13
2018-06-21T23:41:32.436Z,5.10
2018-06-21T23:44:03.182Z,5.60
2018-06-21T23:46:34.038Z,5.30
2018-06-21T23:49:04.850Z,5.30
2018-06-21T23:51:35.700Z,5.00
2018-06-21T23:54:06.321Z,5.20
2018-06-21T23:56:37.166Z,5.10
2018-06-21T23:59:07.922Z,5.00
